createdAt,value
2022-10-03T00:01:40.693Z,69.00
2022-10-03T00:06:40.250Z,69.00
2022-10-03T00:11:40.529Z,68.00
2022-10-03T00:16:40.104Z,66.00
2022-10-03T00:21:40.425Z,67.00
2022-10-03T00:26:40.030Z,67.00
2022-10-03T00:31:40.155Z,67.00
2022-10-03T00:36:39.854Z,68.00
2022-10-03T00:41:39.951Z,69.00
2022-10-03T00:46:39.765Z,70.00
2022-10-03T00:51:39.805Z,72.00
2022-10-03T00:56:39.568Z,72.00
2022-10-03T01:01:39.816Z,72.00
2022-10-03T01:06:39.469Z,73.00
2022-10-03T01:11:39.590Z,71.00
2022-10-03T01:16:39.319Z,72.00
2022-10-03T01:21:39.466Z,72.00
2022-10-03T01:26:39.180Z,72.00
2022-10-03T01:31:39.451Z,70.00
2022-10-03T01:36:39.123Z,70.00
2022-10-03T01:41:39.227Z,69.00
2022-10-03T01:46:38.983Z,68.00
2022-10-03T01:51:39.061Z,69.00
2022-10-03T01:56:38.811Z,71.00
2022-10-03T02:01:38.937Z,72.00
2022-10-03T02:06:38.691Z,71.00
2022-10-03T02:11:38.973Z,71.00
2022-10-03T02:16:38.649Z,72.00
2022-10-03T02:21:38.717Z,74.00
2022-10-03T02:26:38.443Z,73.00
2022-10-03T02:31:38.809Z,74.00
2022-10-03T02:36:38.317Z,75.00
2022-10-03T02:41:38.468Z,75.00
2022-10-03T02:46:38.200Z,75.00
2022-10-03T02:51:38.362Z,74.00
2022-10-03T02:56:38.056Z,75.00
2022-10-03T03:01:38.228Z,74.00
2022-10-03T03:06:37.952Z,73.00
2022-10-03T03:11:38.184Z,71.00
2022-10-03T03:16:37.849Z,72.00
2022-10-03T03:21:37.964Z,71.00
2022-10-03T03:26:37.688Z,72.00
2022-10-03T03:31:38.097Z,74.00
2022-10-03T03:36:37.565Z,73.00
2022-10-03T03:41:37.708Z,75.00
2022-10-03T03:46:37.440Z,75.00
2022-10-03T03:51:37.825Z,75.00
2022-10-03T03:56:37.298Z,76.00
2022-10-03T04:01:37.248Z,77.00
2022-10-03T04:06:37.162Z,79.00
2022-10-03T04:11:37.416Z,80.00
2022-10-03T04:16:37.117Z,78.00
2022-10-03T04:21:37.257Z,75.00
2022-10-03T04:26:36.914Z,75.00
2022-10-03T04:31:36.933Z,75.00
2022-10-03T04:36:36.782Z,74.00
2022-10-03T04:41:40.830Z,75.00
2022-10-03T04:46:37.665Z,75.00
2022-10-03T04:51:36.811Z,75.00
2022-10-03T04:56:36.533Z,74.00
2022-10-03T05:01:36.771Z,74.00
2022-10-03T05:06:36.405Z,74.00
2022-10-03T05:11:36.488Z,75.00
2022-10-03T05:16:36.405Z,75.00
2022-10-03T05:21:36.488Z,74.00
2022-10-03T05:26:51.428Z,74.00
2022-10-03T05:31:37.402Z,72.00
2022-10-03T05:36:36.024Z,73.00
2022-10-03T05:41:35.963Z,73.00
2022-10-03T05:46:35.902Z,74.00
2022-10-03T05:51:35.963Z,74.00
2022-10-03T05:56:40.753Z,74.00
2022-10-03T06:01:37.050Z,74.00
2022-10-03T06:06:35.658Z,73.00
2022-10-03T06:11:35.588Z,74.00
2022-10-03T06:16:35.520Z,75.00
2022-10-03T06:21:35.459Z,76.00
2022-10-03T06:26:35.409Z,75.00
2022-10-03T06:31:35.329Z,76.00
2022-10-03T06:36:35.272Z,74.00
2022-10-03T06:41:35.202Z,74.00
2022-10-03T06:46:35.181Z,74.00
2022-10-03T06:51:35.072Z,74.00
2022-10-03T06:56:35.004Z,75.00
2022-10-03T07:01:35.129Z,73.00
2022-10-03T07:06:34.873Z,73.00
2022-10-03T07:11:34.824Z,73.00
2022-10-03T07:16:34.785Z,74.00
2022-10-03T07:21:34.723Z,74.00
2022-10-03T07:26:34.634Z,75.00
2022-10-03T07:31:34.635Z,75.00
2022-10-03T07:36:34.509Z,76.00
2022-10-03T07:41:34.452Z,75.00
2022-10-03T07:46:34.418Z,74.00
2022-10-03T07:51:34.337Z,74.00
2022-10-03T07:56:34.248Z,73.00
2022-10-03T08:01:34.216Z,72.00
2022-10-03T08:06:34.119Z,72.00
2022-10-03T08:11:34.077Z,72.00
2022-10-03T08:16:33.995Z,72.00
2022-10-03T08:21:33.938Z,71.00
2022-10-03T08:26:33.869Z,71.00
2022-10-03T08:31:33.887Z,72.00
2022-10-03T08:36:33.788Z,72.00
2022-10-03T08:41:33.692Z,73.00
2022-10-03T08:46:33.681Z,74.00
2022-10-03T08:51:33.550Z,73.00
2022-10-03T08:56:33.480Z,73.00
2022-10-03T09:01:33.454Z,74.00
2022-10-03T09:06:33.454Z,76.00
2022-10-03T09:11:33.342Z,75.00
2022-10-03T09:16:33.304Z,75.00
2022-10-03T09:21:37.083Z,74.00
2022-10-03T09:26:33.104Z,74.00
2022-10-03T09:31:33.077Z,75.00
2022-10-03T09:36:32.975Z,75.00
2022-10-03T09:41:32.926Z,75.00
2022-10-03T09:46:32.887Z,76.00
2022-10-03T09:51:32.806Z,76.00
2022-10-03T09:56:32.726Z,75.00
2022-10-03T10:01:32.668Z,76.00
2022-10-03T10:06:32.613Z,75.00
2022-10-03T10:11:35.259Z,75.00
2022-10-03T10:16:32.534Z,74.00
2022-10-03T10:21:32.419Z,73.00
2022-10-03T10:26:32.352Z,73.00
2022-10-03T10:31:32.317Z,75.00
2022-10-03T10:36:32.240Z,72.00
2022-10-03T10:41:32.170Z,71.00
2022-10-03T10:46:32.129Z,69.00
2022-10-03T10:51:32.052Z,69.00
2022-10-03T10:56:31.973Z,69.00
2022-10-03T11:01:31.948Z,69.00
2022-10-03T11:06:31.843Z,70.00
2022-10-03T11:11:31.804Z,69.00
2022-10-03T11:16:31.801Z,69.00
2022-10-03T11:21:31.657Z,68.00
2022-10-03T11:26:31.609Z,69.00
2022-10-03T11:31:31.586Z,70.00
2022-10-03T11:36:31.456Z,70.00
2022-10-03T11:41:31.388Z,71.00
2022-10-03T11:46:31.334Z,70.00
2022-10-03T11:51:31.289Z,71.00
2022-10-03T11:56:31.208Z,70.00
2022-10-03T12:01:31.138Z,71.00
2022-10-03T12:06:31.069Z,71.00
2022-10-03T12:11:31.007Z,69.00
2022-10-03T12:16:31.006Z,70.00
2022-10-03T12:21:30.885Z,69.00
2022-10-03T12:26:30.832Z,71.00
2022-10-03T12:31:30.794Z,71.00
2022-10-03T12:36:30.684Z,73.00
2022-10-03T12:41:30.604Z,72.00
2022-10-03T12:46:30.555Z,73.00
2022-10-03T12:51:30.495Z,73.00
2022-10-03T12:56:30.415Z,73.00
2022-10-03T13:01:30.431Z,74.00
2022-10-03T13:06:58.273Z,74.00
2022-10-03T13:11:31.246Z,76.00
2022-10-03T13:16:30.162Z,74.00
2022-10-03T13:21:46.697Z,72.00
2022-10-03T13:26:31.092Z,73.00
2022-10-03T13:31:30.037Z,71.00
2022-10-03T13:36:29.954Z,72.00
2022-10-03T13:41:29.869Z,71.00
2022-10-03T13:46:29.938Z,71.00
2022-10-03T13:51:29.764Z,71.00
2022-10-03T13:56:29.731Z,70.00
2022-10-03T14:01:29.649Z,69.00
2022-10-03T14:06:31.857Z,69.00
2022-10-03T14:11:30.473Z,70.00
2022-10-03T14:16:29.448Z,69.00
2022-10-03T14:21:29.355Z,70.00
2022-10-03T14:26:29.314Z,70.00
2022-10-03T14:31:29.221Z,69.00
2022-10-03T14:36:29.156Z,70.00
2022-10-03T14:41:29.089Z,70.00
2022-10-03T14:46:29.029Z,70.00
2022-10-03T14:51:28.948Z,70.00
2022-10-03T14:56:28.899Z,70.00
2022-10-03T15:01:28.888Z,71.00
2022-10-03T15:06:28.772Z,71.00
2022-10-03T15:11:28.695Z,71.00
2022-10-03T15:16:28.699Z,71.00
2022-10-03T15:21:28.572Z,72.00
2022-10-03T15:26:28.514Z,70.00
2022-10-03T15:31:28.514Z,72.00
2022-10-03T15:36:28.397Z,72.00
2022-10-03T15:41:28.317Z,72.00
2022-10-03T15:46:28.327Z,71.00
2022-10-03T15:51:28.186Z,71.00
2022-10-03T15:56:28.116Z,71.00
2022-10-03T16:01:28.094Z,70.00
2022-10-03T16:06:30.202Z,70.00
2022-10-03T16:11:28.935Z,70.00
2022-10-03T16:16:27.905Z,71.00
2022-10-03T16:21:27.799Z,68.00
2022-10-03T16:26:27.753Z,70.00
2022-10-03T16:31:27.722Z,70.00
2022-10-03T16:36:27.613Z,70.00
2022-10-03T16:41:27.554Z,72.00
2022-10-03T16:46:27.462Z,73.00
2022-10-03T16:51:27.422Z,74.00
2022-10-03T16:56:27.354Z,74.00
2022-10-03T17:01:38.063Z,75.00
2022-10-03T17:06:28.224Z,74.00
2022-10-03T17:11:27.162Z,75.00
2022-10-03T17:16:27.143Z,74.00
2022-10-03T17:21:27.047Z,74.00
2022-10-03T17:26:26.971Z,76.00
2022-10-03T17:31:26.954Z,75.00
2022-10-03T17:36:26.876Z,74.00
2022-10-03T17:41:26.778Z,74.00
2022-10-03T17:46:26.751Z,74.00
2022-10-03T17:51:26.656Z,74.00
2022-10-03T17:56:26.599Z,75.00
2022-10-03T18:01:26.548Z,76.00
2022-10-03T18:06:26.451Z,77.00
2022-10-03T18:11:26.400Z,77.00
2022-10-03T18:16:26.411Z,76.00
2022-10-03T18:21:26.253Z,75.00
2022-10-03T18:26:26.212Z,76.00
2022-10-03T18:31:26.183Z,75.00
2022-10-03T18:36:26.080Z,76.00
2022-10-03T18:41:26.012Z,76.00
2022-10-03T18:46:26.019Z,75.00
2022-10-03T18:51:25.893Z,73.00
2022-10-03T18:56:25.826Z,73.00
2022-10-03T19:01:25.840Z,74.00
2022-10-03T19:06:25.722Z,74.00
2022-10-03T19:11:25.649Z,74.00
2022-10-03T19:16:25.692Z,73.00
2022-10-03T19:21:25.516Z,73.00
2022-10-03T19:26:25.448Z,72.00
2022-10-03T19:31:25.448Z,74.00
2022-10-03T19:36:25.310Z,73.00
2022-10-03T19:41:25.253Z,74.00
2022-10-03T19:46:25.196Z,73.00
2022-10-03T19:51:25.779Z,73.00
2022-10-03T19:56:25.064Z,72.00
2022-10-03T20:01:25.026Z,72.00
2022-10-03T20:06:24.940Z,71.00
2022-10-03T20:11:24.879Z,72.00
2022-10-03T20:16:24.898Z,73.00
2022-10-03T20:21:24.729Z,72.00
2022-10-03T20:26:24.691Z,73.00
2022-10-03T20:31:24.678Z,73.00
2022-10-03T20:36:24.560Z,71.00
2022-10-03T20:41:24.511Z,70.00
2022-10-03T20:46:24.485Z,72.00
2022-10-03T20:51:24.395Z,74.00
2022-10-03T20:56:24.296Z,76.00
2022-10-03T21:01:24.370Z,74.00
2022-10-03T21:06:24.180Z,74.00
2022-10-03T21:11:24.103Z,74.00
2022-10-03T21:16:24.110Z,73.00
2022-10-03T21:21:23.996Z,73.00
2022-10-03T21:26:23.923Z,74.00
2022-10-03T21:31:23.882Z,76.00
2022-10-03T21:36:23.785Z,75.00
2022-10-03T21:41:23.753Z,73.00
2022-10-03T21:46:23.684Z,73.00
2022-10-03T21:51:23.572Z,73.00
2022-10-03T21:56:23.517Z,72.00
2022-10-03T22:01:23.512Z,73.00
2022-10-03T22:06:23.390Z,72.00
2022-10-03T22:11:23.325Z,72.00
2022-10-03T22:16:23.307Z,73.00
2022-10-03T22:21:23.173Z,71.00
2022-10-03T22:26:23.112Z,70.00
2022-10-03T22:31:23.078Z,70.00
2022-10-03T22:36:22.967Z,70.00
2022-10-03T22:41:22.896Z,71.00
2022-10-03T22:46:22.890Z,71.00
2022-10-03T22:51:22.748Z,71.00
2022-10-03T22:56:22.696Z,72.00
2022-10-03T23:01:22.676Z,72.00
2022-10-03T23:06:22.558Z,71.00
2022-10-03T23:11:22.517Z,72.00
2022-10-03T23:16:22.507Z,73.00
2022-10-03T23:21:22.391Z,72.00
2022-10-03T23:26:22.332Z,71.00
2022-10-03T23:31:22.280Z,69.00
2022-10-03T23:36:22.199Z,69.00
2022-10-03T23:41:22.149Z,70.00
2022-10-03T23:46:22.129Z,68.00
2022-10-03T23:51:22.028Z,71.00
2022-10-03T23:56:21.962Z,70.00
